createdAt,value
2019-05-28T00:00:52.264Z,0
2019-05-28T00:02:02.587Z,0
2019-05-28T00:03:12.577Z,0
2019-05-28T00:04:22.571Z,0
2019-05-28T00:05:32.282Z,0
2019-05-28T00:06:41.722Z,0
2019-05-28T00:07:51.420Z,0
2019-05-28T00:09:01.378Z,0
2019-05-28T00:10:12.741Z,0
2019-05-28T00:11:22.546Z,0
2019-05-28T00:12:32.000Z,0
2019-05-28T00:13:41.726Z,0
2019-05-28T00:14:51.692Z,0
2019-05-28T00:16:01.428Z,0
2019-05-28T00:17:10.894Z,0
2019-05-28T00:18:20.847Z,0
2019-05-28T00:19:30.282Z,0
2019-05-28T00:20:39.794Z,0
2019-05-28T00:21:49.753Z,0
2019-05-28T00:22:59.488Z,0
2019-05-28T00:24:09.525Z,0
2019-05-28T00:25:19.286Z,0
2019-05-28T00:26:29.242Z,0
2019-05-28T00:27:38.977Z,0
2019-05-28T00:28:48.949Z,0
2019-05-28T00:29:58.908Z,0
2019-05-28T00:31:08.866Z,0
2019-05-28T00:32:18.813Z,0
2019-05-28T00:33:28.322Z,0
2019-05-28T00:34:38.307Z,0
2019-05-28T00:35:48.293Z,0
2019-05-28T00:36:57.998Z,0
2019-05-28T00:38:07.702Z,0
2019-05-28T00:39:17.481Z,0
2019-05-28T00:40:27.569Z,0
2019-05-28T00:41:37.020Z,0
2019-05-28T00:42:46.996Z,0
2019-05-28T00:43:56.686Z,0
2019-05-28T00:45:06.387Z,0
2019-05-28T00:46:16.094Z,0
2019-05-28T00:47:26.042Z,0
2019-05-28T00:48:35.766Z,0
2019-05-28T00:49:48.888Z,0
2019-05-28T00:50:59.282Z,0
2019-05-28T00:52:08.739Z,0
2019-05-28T00:53:18.445Z,0
2019-05-28T00:54:28.407Z,0
2019-05-28T00:55:38.386Z,0
2019-05-28T00:56:48.268Z,0
2019-05-28T00:57:58.236Z,0
2019-05-28T00:59:07.442Z,0
2019-05-28T01:00:17.394Z,0
2019-05-28T01:01:27.386Z,0
2019-05-28T01:02:37.081Z,0
2019-05-28T01:03:47.097Z,0
2019-05-28T01:04:57.257Z,0
2019-05-28T01:06:07.228Z,0
2019-05-28T01:07:17.191Z,0
2019-05-28T01:08:27.147Z,0
2019-05-28T01:09:36.841Z,0
2019-05-28T01:10:46.549Z,0
2019-05-28T01:11:56.280Z,0
2019-05-28T01:13:05.982Z,0
2019-05-28T01:14:15.945Z,0
2019-05-28T01:15:25.412Z,0
2019-05-28T01:16:35.123Z,0
2019-05-28T01:17:45.303Z,0
2019-05-28T01:18:55.256Z,0
2019-05-28T01:20:04.963Z,0
2019-05-28T01:21:14.977Z,0
2019-05-28T01:22:24.444Z,0
2019-05-28T01:23:33.648Z,0
2019-05-28T01:24:43.100Z,0
2019-05-28T01:25:52.561Z,0
2019-05-28T01:27:02.534Z,0
2019-05-28T01:28:12.284Z,0
2019-05-28T01:29:21.990Z,0
2019-05-28T01:30:31.954Z,0
2019-05-28T01:31:41.660Z,0
2019-05-28T01:32:51.693Z,0
2019-05-28T01:34:01.648Z,0
2019-05-28T01:35:11.634Z,0
2019-05-28T01:36:21.582Z,0
2019-05-28T01:37:31.535Z,0
2019-05-28T01:38:41.551Z,0
2019-05-28T01:39:51.523Z,0
2019-05-28T01:41:01.545Z,0
2019-05-28T01:42:11.256Z,0
2019-05-28T01:43:21.205Z,0
2019-05-28T01:44:30.897Z,0
2019-05-28T01:45:40.922Z,0
2019-05-28T01:46:50.402Z,0
2019-05-28T01:48:02.518Z,0
2019-05-28T01:49:12.254Z,0
2019-05-28T01:50:21.979Z,0
2019-05-28T01:51:31.682Z,0
2019-05-28T01:52:41.654Z,0
2019-05-28T01:53:51.592Z,0
2019-05-28T01:55:01.333Z,0
2019-05-28T01:56:11.451Z,0
2019-05-28T01:57:21.170Z,0
2019-05-28T01:58:31.124Z,0
2019-05-28T01:59:41.122Z,0
2019-05-28T02:00:51.082Z,0
2019-05-28T02:02:00.794Z,0
2019-05-28T02:03:10.502Z,0
2019-05-28T02:04:20.445Z,0
2019-05-28T02:05:30.164Z,0
2019-05-28T02:06:40.178Z,0
2019-05-28T02:07:49.883Z,0
2019-05-28T02:08:59.866Z,0
2019-05-28T02:10:09.581Z,0
2019-05-28T02:11:19.523Z,0
2019-05-28T02:12:29.503Z,0
2019-05-28T02:13:39.209Z,0
2019-05-28T02:14:48.921Z,0
2019-05-28T02:15:58.869Z,0
2019-05-28T02:17:08.841Z,0
2019-05-28T02:18:18.541Z,0
2019-05-28T02:19:27.739Z,0
2019-05-28T02:20:37.767Z,0
2019-05-28T02:21:47.729Z,0
2019-05-28T02:22:57.699Z,0
2019-05-28T02:24:07.408Z,0
2019-05-28T02:25:17.419Z,0
2019-05-28T02:26:26.874Z,0
2019-05-28T02:27:36.834Z,0
2019-05-28T02:28:46.284Z,0
2019-05-28T02:29:55.988Z,0
2019-05-28T02:31:05.717Z,0
2019-05-28T02:32:15.667Z,0
2019-05-28T02:33:25.636Z,0
2019-05-28T02:34:35.602Z,0
2019-05-28T02:35:45.568Z,0
2019-05-28T02:36:55.304Z,0
2019-05-28T02:38:05.285Z,0
2019-05-28T02:39:14.989Z,0
2019-05-28T02:40:24.478Z,0
2019-05-28T02:41:34.431Z,0
2019-05-28T02:42:44.123Z,0
2019-05-28T02:43:54.071Z,0
2019-05-28T02:45:04.021Z,0
2019-05-28T02:46:13.994Z,0
2019-05-28T02:47:23.994Z,0
2019-05-28T02:48:33.952Z,0
2019-05-28T02:49:43.396Z,0
2019-05-28T02:50:53.087Z,0
2019-05-28T02:52:02.811Z,5
2019-05-28T02:53:12.763Z,5
2019-05-28T02:54:22.464Z,5
2019-05-28T02:55:32.175Z,5
2019-05-28T02:56:42.149Z,5
2019-05-28T02:57:52.112Z,5
2019-05-28T02:59:02.067Z,5
2019-05-28T03:00:11.861Z,5
2019-05-28T03:01:21.821Z,5
2019-05-28T03:02:32.005Z,5
2019-05-28T03:03:41.736Z,5
2019-05-28T03:04:51.688Z,10
2019-05-28T03:06:01.652Z,10
2019-05-28T03:07:11.384Z,10
2019-05-28T03:08:21.120Z,10
2019-05-28T03:09:31.117Z,10
2019-05-28T03:11:11.320Z,10
2019-05-28T03:12:21.025Z,10
2019-05-28T03:13:30.973Z,10
2019-05-28T03:14:40.929Z,15
2019-05-28T03:15:50.892Z,15
2019-05-28T03:17:00.894Z,15
2019-05-28T03:18:10.681Z,15
2019-05-28T03:19:20.157Z,15
2019-05-28T03:20:30.141Z,15
2019-05-28T03:21:40.103Z,15
2019-05-28T03:22:50.062Z,15
2019-05-28T03:23:59.779Z,20
2019-05-28T03:25:09.749Z,20
2019-05-28T03:26:19.491Z,20
2019-05-28T03:27:29.442Z,20
2019-05-28T03:28:39.391Z,20
2019-05-28T03:29:49.332Z,25
2019-05-28T03:30:59.086Z,25
2019-05-28T03:32:18.952Z,25
2019-05-28T03:33:28.690Z,25
2019-05-28T03:34:41.805Z,30
2019-05-28T03:35:51.522Z,30
2019-05-28T03:37:00.718Z,30
2019-05-28T03:38:10.679Z,30
2019-05-28T03:39:20.659Z,30
2019-05-28T03:40:30.380Z,30
2019-05-28T03:41:40.344Z,30
2019-05-28T03:42:50.329Z,35
2019-05-28T03:44:00.278Z,35
2019-05-28T03:45:10.067Z,35
2019-05-28T03:46:20.029Z,35
2019-05-28T03:47:29.976Z,40
2019-05-28T03:48:39.422Z,40
2019-05-28T03:49:49.369Z,40
2019-05-28T03:50:59.425Z,40
2019-05-28T03:52:09.359Z,45
2019-05-28T03:53:19.330Z,45
2019-05-28T03:54:29.049Z,50
2019-05-28T03:55:39.012Z,50
2019-05-28T03:56:48.706Z,50
2019-05-28T03:57:58.655Z,55
2019-05-28T03:59:08.357Z,55
2019-05-28T04:00:18.093Z,55
2019-05-28T04:01:28.101Z,55
2019-05-28T04:02:38.052Z,55
2019-05-28T04:03:47.733Z,55
2019-05-28T04:04:57.692Z,55
2019-05-28T04:06:07.459Z,55
2019-05-28T04:07:17.414Z,60
2019-05-28T04:08:27.359Z,60
2019-05-28T04:09:41.032Z,65
2019-05-28T04:10:50.999Z,65
2019-05-28T04:12:00.974Z,65
2019-05-28T04:13:10.685Z,65
2019-05-28T04:14:20.948Z,70
2019-05-28T04:15:30.918Z,70
2019-05-28T04:16:40.859Z,70
2019-05-28T04:17:50.555Z,70
2019-05-28T04:19:00.518Z,70
2019-05-28T04:20:10.618Z,70
2019-05-28T04:21:20.581Z,70
2019-05-28T04:22:30.287Z,70
2019-05-28T04:23:43.977Z,65
2019-05-28T04:24:53.713Z,65
2019-05-28T04:26:03.771Z,65
2019-05-28T04:27:13.720Z,65
2019-05-28T04:28:23.672Z,70
2019-05-28T04:29:33.381Z,70
2019-05-28T04:30:43.085Z,75
2019-05-28T04:31:53.051Z,75
2019-05-28T04:33:02.757Z,80
2019-05-28T04:34:12.472Z,85
2019-05-28T04:35:22.280Z,85
2019-05-28T04:36:32.237Z,90
2019-05-28T04:37:42.241Z,95
2019-05-28T04:38:52.179Z,95
2019-05-28T04:40:01.449Z,100
2019-05-28T04:41:11.274Z,105
2019-05-28T04:42:21.076Z,105
2019-05-28T04:43:31.048Z,110
2019-05-28T04:44:41.025Z,110
2019-05-28T04:45:50.485Z,110
2019-05-28T04:47:00.576Z,110
2019-05-28T04:48:10.538Z,115
2019-05-28T04:49:20.510Z,120
2019-05-28T04:50:30.478Z,125
2019-05-28T04:51:40.430Z,130
2019-05-28T04:52:50.398Z,135
2019-05-28T04:54:00.123Z,145
2019-05-28T04:55:10.072Z,145
2019-05-28T04:56:19.579Z,150
2019-05-28T04:57:29.541Z,155
2019-05-28T04:58:39.491Z,155
2019-05-28T04:59:49.454Z,160
2019-05-28T05:00:59.177Z,160
2019-05-28T05:02:09.241Z,165
2019-05-28T05:03:19.194Z,170
2019-05-28T05:04:29.197Z,175
2019-05-28T05:05:38.889Z,180
2019-05-28T05:06:48.850Z,180
2019-05-28T05:07:58.567Z,190
2019-05-28T05:09:08.532Z,195
2019-05-28T05:10:21.583Z,195
2019-05-28T05:11:31.575Z,200
2019-05-28T05:12:41.562Z,200
2019-05-28T05:13:51.566Z,205
2019-05-28T05:15:01.617Z,205
2019-05-28T05:16:11.198Z,210
2019-05-28T05:17:21.173Z,210
2019-05-28T05:18:31.137Z,210
2019-05-28T05:19:41.100Z,215
2019-05-28T05:20:50.797Z,215
2019-05-28T05:22:00.779Z,220
2019-05-28T05:23:10.501Z,220
2019-05-28T05:24:20.477Z,220
2019-05-28T05:25:30.481Z,220
2019-05-28T05:26:40.012Z,225
2019-05-28T05:27:49.726Z,225
2019-05-28T05:28:59.684Z,225
2019-05-28T05:30:09.460Z,230
2019-05-28T05:31:19.453Z,235
2019-05-28T05:32:32.545Z,240
2019-05-28T05:33:42.248Z,235
2019-05-28T05:34:52.200Z,225
2019-05-28T05:36:01.902Z,225
2019-05-28T05:37:11.849Z,225
2019-05-28T05:38:21.334Z,225
2019-05-28T05:39:31.312Z,220
2019-05-28T05:40:41.021Z,220
2019-05-28T05:41:50.744Z,220
2019-05-28T05:43:00.198Z,220
2019-05-28T05:44:10.154Z,220
2019-05-28T05:45:20.128Z,220
2019-05-28T05:46:30.095Z,220
2019-05-28T05:47:39.562Z,220
2019-05-28T05:48:49.268Z,225
2019-05-28T05:49:59.221Z,225
2019-05-28T05:51:08.986Z,225
2019-05-28T05:52:18.725Z,225
2019-05-28T05:53:28.446Z,225
2019-05-28T05:54:38.423Z,225
2019-05-28T05:55:48.372Z,230
2019-05-28T05:56:58.332Z,230
2019-05-28T05:58:08.340Z,230
2019-05-28T05:59:18.031Z,230
2019-05-28T06:00:28.020Z,230
2019-05-28T06:01:37.994Z,230
2019-05-28T06:02:48.089Z,235
2019-05-28T06:03:58.290Z,235
2019-05-28T06:05:08.070Z,235
2019-05-28T06:06:17.521Z,240
2019-05-28T06:07:27.551Z,240
2019-05-28T06:08:39.286Z,245
2019-05-28T06:09:48.783Z,245
2019-05-28T06:10:58.761Z,250
2019-05-28T06:12:08.766Z,255
2019-05-28T06:13:18.739Z,255
2019-05-28T06:14:28.469Z,260
2019-05-28T06:15:38.448Z,260
2019-05-28T06:16:48.402Z,265
2019-05-28T06:17:58.122Z,275
2019-05-28T06:19:08.282Z,285
2019-05-28T06:20:18.249Z,295
2019-05-28T06:21:28.726Z,300
2019-05-28T06:22:38.958Z,315
2019-05-28T06:23:49.009Z,330
2019-05-28T06:24:58.840Z,340
2019-05-28T06:26:08.814Z,355
2019-05-28T06:27:21.885Z,365
2019-05-28T06:28:31.678Z,370
2019-05-28T06:29:41.229Z,375
2019-05-28T06:30:50.836Z,375
2019-05-28T06:32:00.993Z,375
2019-05-28T06:33:10.935Z,360
2019-05-28T06:34:20.675Z,350
2019-05-28T06:35:30.650Z,340
2019-05-28T06:36:40.641Z,335
2019-05-28T06:37:50.602Z,335
2019-05-28T06:39:00.115Z,335
2019-05-28T06:40:09.684Z,330
2019-05-28T06:41:19.414Z,330
2019-05-28T06:42:29.383Z,335
2019-05-28T06:43:39.108Z,335
2019-05-28T06:44:49.295Z,335
2019-05-28T06:45:59.369Z,340
2019-05-28T06:47:09.350Z,340
2019-05-28T06:48:19.331Z,345
2019-05-28T06:49:29.352Z,350
2019-05-28T06:50:39.324Z,360
2019-05-28T06:51:49.285Z,365
2019-05-28T06:52:59.286Z,370
2019-05-28T06:54:11.706Z,380
2019-05-28T06:55:21.333Z,370
2019-05-28T06:56:31.060Z,370
2019-05-28T06:57:41.035Z,370
2019-05-28T06:58:50.775Z,370
2019-05-28T07:00:00.538Z,370
2019-05-28T07:01:11.242Z,370
2019-05-28T07:02:21.135Z,365
2019-05-28T07:03:31.094Z,365
2019-05-28T07:04:42.691Z,365
2019-05-28T07:06:10.647Z,360
2019-05-28T07:07:20.622Z,360
2019-05-28T07:08:30.664Z,360
2019-05-28T07:09:40.432Z,360
2019-05-28T07:11:06.672Z,360
2019-05-28T07:12:20.428Z,365
2019-05-28T07:13:30.152Z,370
2019-05-28T07:14:40.163Z,370
2019-05-28T07:15:49.631Z,370
2019-05-28T07:17:03.102Z,375
2019-05-28T07:18:12.874Z,385
2019-05-28T07:19:34.133Z,385
2019-05-28T07:20:44.154Z,385
2019-05-28T07:21:54.150Z,390
2019-05-28T07:23:03.727Z,390
2019-05-28T07:24:14.778Z,390
2019-05-28T07:25:24.544Z,395
2019-05-28T07:26:34.562Z,395
2019-05-28T07:27:44.346Z,395
2019-05-28T07:28:54.338Z,400
2019-05-28T07:30:04.404Z,405
2019-05-28T07:31:14.124Z,410
2019-05-28T07:32:24.099Z,420
2019-05-28T07:33:37.815Z,425
2019-05-28T07:34:47.800Z,435
2019-05-28T07:35:57.816Z,435
2019-05-28T07:37:07.539Z,445
2019-05-28T07:38:17.507Z,450
2019-05-28T07:39:27.498Z,450
2019-05-28T07:40:41.546Z,455
2019-05-28T07:41:51.515Z,455
2019-05-28T07:43:01.248Z,460
2019-05-28T07:44:10.987Z,460
2019-05-28T07:45:21.184Z,460
2019-05-28T07:46:31.179Z,465
2019-05-28T07:47:41.225Z,465
2019-05-28T07:48:50.692Z,465
2019-05-28T07:50:00.156Z,465
2019-05-28T07:51:09.939Z,465
2019-05-28T07:52:19.703Z,465
2019-05-28T07:53:45.824Z,465
2019-05-28T07:54:55.531Z,465
2019-05-28T07:56:05.676Z,465
2019-05-28T07:57:15.150Z,465
2019-05-28T07:58:24.854Z,470
2019-05-28T07:59:34.821Z,475
2019-05-28T08:00:44.540Z,480
2019-05-28T08:01:54.538Z,480
2019-05-28T08:03:04.275Z,485
2019-05-28T08:04:13.889Z,490
2019-05-28T08:05:26.763Z,490
2019-05-28T08:06:51.550Z,490
2019-05-28T08:08:03.429Z,490
2019-05-28T08:09:13.392Z,490
2019-05-28T08:10:23.757Z,490
2019-05-28T08:11:33.480Z,490
2019-05-28T08:12:42.979Z,495
2019-05-28T08:13:55.061Z,495
2019-05-28T08:15:05.124Z,500
2019-05-28T08:16:33.744Z,510
2019-05-28T08:17:43.233Z,515
2019-05-28T08:18:53.225Z,520
2019-05-28T08:20:02.686Z,525
2019-05-28T08:21:12.688Z,540
2019-05-28T08:22:23.435Z,540
2019-05-28T08:23:33.423Z,540
2019-05-28T08:24:43.223Z,540
2019-05-28T08:25:56.821Z,540
2019-05-28T08:27:06.800Z,545
2019-05-28T08:28:29.030Z,550
2019-05-28T08:29:38.561Z,555
2019-05-28T08:30:48.619Z,560
2019-05-28T08:31:58.357Z,565
2019-05-28T08:33:08.454Z,575
2019-05-28T08:34:22.001Z,585
2019-05-28T08:35:31.753Z,595
2019-05-28T08:36:41.735Z,595
2019-05-28T08:37:51.197Z,600
2019-05-28T08:39:01.210Z,605
2019-05-28T08:40:11.003Z,610
2019-05-28T08:41:20.785Z,605
2019-05-28T08:42:31.025Z,600
2019-05-28T08:43:40.601Z,590
2019-05-28T08:44:50.630Z,580
2019-05-28T08:46:00.666Z,565
2019-05-28T08:47:10.647Z,555
2019-05-28T08:48:20.626Z,555
2019-05-28T08:49:33.646Z,565
2019-05-28T08:50:44.887Z,565
2019-05-28T08:51:54.617Z,565
2019-05-28T08:53:04.653Z,550
2019-05-28T08:54:14.755Z,535
2019-05-28T08:55:24.466Z,520
2019-05-28T08:56:34.543Z,510
2019-05-28T08:57:44.689Z,495
2019-05-28T08:58:54.683Z,500
2019-05-28T09:00:04.558Z,495
2019-05-28T09:01:14.364Z,505
2019-05-28T09:02:36.990Z,540
2019-05-28T09:03:46.699Z,575
2019-05-28T09:04:56.763Z,600
2019-05-28T09:06:06.490Z,540
2019-05-28T09:07:16.479Z,475
2019-05-28T09:08:43.306Z,455
2019-05-28T09:09:52.533Z,470
2019-05-28T09:11:02.857Z,490
2019-05-28T09:12:14.303Z,510
2019-05-28T09:13:23.869Z,530
2019-05-28T09:14:59.360Z,545
2019-05-28T09:16:09.353Z,545
2019-05-28T09:17:19.128Z,545
2019-05-28T09:18:28.612Z,530
2019-05-28T09:19:38.611Z,530
2019-05-28T09:20:48.912Z,530
2019-05-28T09:21:58.936Z,530
2019-05-28T09:23:08.934Z,520
2019-05-28T09:24:18.928Z,520
2019-05-28T09:25:28.692Z,510
2019-05-28T09:26:38.668Z,510
2019-05-28T09:27:48.648Z,520
2019-05-28T09:28:58.788Z,530
2019-05-28T09:30:09.077Z,540
2019-05-28T09:31:19.047Z,550
2019-05-28T09:32:29.038Z,545
2019-05-28T09:33:39.290Z,545
2019-05-28T09:34:49.089Z,545
2019-05-28T09:36:16.898Z,545
2019-05-28T09:37:26.882Z,545
2019-05-28T09:38:36.891Z,550
2019-05-28T09:39:46.629Z,555
2019-05-28T09:41:00.239Z,555
2019-05-28T09:42:10.371Z,560
2019-05-28T09:43:20.398Z,570
2019-05-28T09:44:30.420Z,575
2019-05-28T09:45:40.199Z,585
2019-05-28T09:46:50.176Z,590
2019-05-28T09:48:02.213Z,600
2019-05-28T09:49:12.219Z,595
2019-05-28T09:50:39.595Z,585
2019-05-28T09:51:49.569Z,585
2019-05-28T09:53:04.537Z,560
2019-05-28T09:54:14.005Z,555
2019-05-28T09:55:23.994Z,550
2019-05-28T09:56:37.202Z,555
2019-05-28T09:57:57.063Z,560
2019-05-28T09:59:06.826Z,565
2019-05-28T10:00:19.887Z,570
2019-05-28T10:01:29.597Z,575
2019-05-28T10:02:39.327Z,600
2019-05-28T10:03:49.358Z,605
2019-05-28T10:04:59.586Z,625
2019-05-28T10:06:41.615Z,645
2019-05-28T10:07:51.749Z,660
2019-05-28T10:09:01.471Z,655
2019-05-28T10:10:11.319Z,665
2019-05-28T10:11:21.701Z,685
2019-05-28T10:12:31.450Z,680
2019-05-28T10:13:49.255Z,730
2019-05-28T10:14:59.284Z,740
2019-05-28T10:16:09.188Z,710
2019-05-28T10:17:18.910Z,655
2019-05-28T10:18:28.679Z,700
2019-05-28T10:19:37.916Z,660
2019-05-28T10:20:47.981Z,665
2019-05-28T10:21:57.690Z,690
2019-05-28T10:23:07.728Z,710
2019-05-28T10:24:17.699Z,850
2019-05-28T10:25:27.976Z,910
2019-05-28T10:26:37.693Z,910
2019-05-28T10:28:06.556Z,930
2019-05-28T10:29:16.284Z,760
2019-05-28T10:30:26.039Z,790
2019-05-28T10:31:36.014Z,875
2019-05-28T10:32:45.999Z,875
2019-05-28T10:33:55.964Z,870
2019-05-28T10:35:13.664Z,720
2019-05-28T10:36:42.650Z,835
2019-05-28T10:37:52.784Z,710
2019-05-28T10:39:02.518Z,695
2019-05-28T10:40:12.277Z,710
2019-05-28T10:41:22.293Z,875
2019-05-28T10:42:32.294Z,800
2019-05-28T10:43:42.298Z,760
2019-05-28T10:44:55.109Z,855
2019-05-28T10:46:05.945Z,740
2019-05-28T10:47:16.194Z,695
2019-05-28T10:48:26.203Z,715
2019-05-28T10:49:36.191Z,745
2019-05-28T10:50:46.185Z,1090
2019-05-28T10:51:55.904Z,880
2019-05-28T10:53:05.686Z,1135
2019-05-28T10:54:15.409Z,1115
2019-05-28T10:55:25.884Z,1115
2019-05-28T10:56:36.052Z,1085
2019-05-28T10:57:46.250Z,830
2019-05-28T10:58:56.229Z,955
2019-05-28T11:00:06.498Z,890
2019-05-28T11:01:16.067Z,845
2019-05-28T11:02:26.084Z,785
2019-05-28T11:03:36.070Z,800
2019-05-28T11:04:45.901Z,845
2019-05-28T11:05:55.650Z,880
2019-05-28T11:07:05.368Z,735
2019-05-28T11:08:15.084Z,655
2019-05-28T11:09:24.539Z,655
2019-05-28T11:10:34.749Z,730
2019-05-28T11:11:44.526Z,870
2019-05-28T11:12:54.523Z,915
2019-05-28T11:14:04.559Z,920
2019-05-28T11:15:14.624Z,870
2019-05-28T11:16:24.503Z,730
2019-05-28T11:17:34.044Z,700
2019-05-28T11:18:44.018Z,670
2019-05-28T11:19:53.975Z,610
2019-05-28T11:21:08.994Z,615
2019-05-28T11:22:19.535Z,730
2019-05-28T11:23:29.511Z,760
2019-05-28T11:24:39.522Z,865
2019-05-28T11:25:49.245Z,800
2019-05-28T11:26:59.294Z,860
2019-05-28T11:28:09.264Z,730
2019-05-28T11:29:19.414Z,805
2019-05-28T11:30:29.779Z,1025
2019-05-28T11:31:39.772Z,835
2019-05-28T11:32:51.008Z,675
2019-05-28T11:34:01.010Z,655
2019-05-28T11:35:11.064Z,680
2019-05-28T11:36:21.059Z,1090
2019-05-28T11:37:30.786Z,840
2019-05-28T11:38:40.774Z,805
2019-05-28T11:39:50.531Z,590
2019-05-28T11:41:00.504Z,510
2019-05-28T11:42:10.308Z,475
2019-05-28T11:43:20.028Z,460
2019-05-28T11:44:30.058Z,445
2019-05-28T11:45:39.750Z,445
2019-05-28T11:46:49.738Z,465
2019-05-28T11:48:00.885Z,500
2019-05-28T11:49:10.921Z,555
2019-05-28T11:50:21.033Z,605
2019-05-28T11:51:30.969Z,660
2019-05-28T11:52:40.985Z,685
2019-05-28T11:53:50.976Z,740
2019-05-28T11:55:00.707Z,795
2019-05-28T11:56:10.456Z,795
2019-05-28T11:57:20.453Z,690
2019-05-28T11:58:29.912Z,860
2019-05-28T11:59:39.923Z,835
2019-05-28T12:00:49.906Z,805
2019-05-28T12:01:59.906Z,790
2019-05-28T12:03:10.087Z,735
2019-05-28T12:04:20.199Z,615
2019-05-28T12:05:30.173Z,580
2019-05-28T12:06:45.387Z,560
2019-05-28T12:07:59.011Z,535
2019-05-28T12:09:08.726Z,540
2019-05-28T12:10:18.755Z,565
2019-05-28T12:11:28.024Z,510
2019-05-28T12:12:38.093Z,530
2019-05-28T12:13:48.127Z,550
2019-05-28T12:14:57.868Z,565
2019-05-28T12:16:07.840Z,585
2019-05-28T12:17:17.825Z,650
2019-05-28T12:18:27.818Z,615
2019-05-28T12:19:37.944Z,655
2019-05-28T12:20:48.052Z,665
2019-05-28T12:21:57.786Z,635
2019-05-28T12:23:20.690Z,645
2019-05-28T12:24:35.467Z,655
2019-05-28T12:25:45.441Z,735
2019-05-28T12:26:55.684Z,775
2019-05-28T12:28:06.008Z,760
2019-05-28T12:29:16.002Z,760
2019-05-28T12:30:28.215Z,780
2019-05-28T12:31:38.198Z,765
2019-05-28T12:32:48.179Z,645
2019-05-28T12:33:57.466Z,625
2019-05-28T12:35:23.813Z,570
2019-05-28T12:36:36.643Z,560
2019-05-28T12:37:58.216Z,560
2019-05-28T12:39:08.183Z,575
2019-05-28T12:40:18.163Z,600
2019-05-28T12:41:27.666Z,615
2019-05-28T12:42:37.386Z,650
2019-05-28T12:43:47.302Z,710
2019-05-28T12:45:16.091Z,855
2019-05-28T12:46:25.820Z,730
2019-05-28T12:47:35.816Z,725
2019-05-28T12:48:45.793Z,1065
2019-05-28T12:49:55.762Z,775
2019-05-28T12:51:09.203Z,810
2019-05-28T12:52:18.986Z,1250
2019-05-28T12:53:45.936Z,1015
2019-05-28T12:54:58.099Z,1510
2019-05-28T12:56:07.842Z,1475
2019-05-28T12:57:17.822Z,1730
2019-05-28T12:58:46.178Z,1665
2019-05-28T12:59:56.149Z,1615
2019-05-28T13:01:06.303Z,1515
2019-05-28T13:02:16.299Z,1095
2019-05-28T13:03:26.297Z,1245
2019-05-28T13:04:36.280Z,1445
2019-05-28T13:05:46.267Z,1140
2019-05-28T13:06:56.269Z,830
2019-05-28T13:08:18.647Z,795
2019-05-28T13:09:28.616Z,820
2019-05-28T13:10:38.347Z,1075
2019-05-28T13:11:48.071Z,775
2019-05-28T13:12:58.691Z,770
2019-05-28T13:14:08.699Z,795
2019-05-28T13:15:18.846Z,700
2019-05-28T13:16:28.618Z,660
2019-05-28T13:17:38.397Z,660
2019-05-28T13:18:48.389Z,660
2019-05-28T13:19:58.291Z,645
2019-05-28T13:21:08.370Z,620
2019-05-28T13:22:17.762Z,1305
2019-05-28T13:23:27.745Z,710
2019-05-28T13:24:37.749Z,690
2019-05-28T13:25:47.740Z,1150
2019-05-28T13:26:57.356Z,1115
2019-05-28T13:28:07.349Z,1265
2019-05-28T13:29:17.355Z,1245
2019-05-28T13:30:27.837Z,1490
2019-05-28T13:31:37.549Z,1320
2019-05-28T13:32:48.499Z,1650
2019-05-28T13:33:58.261Z,1830
2019-05-28T13:35:08.843Z,880
2019-05-28T13:36:18.841Z,855
2019-05-28T13:37:28.927Z,1400
2019-05-28T13:38:42.460Z,685
2019-05-28T13:39:52.475Z,680
2019-05-28T13:41:02.457Z,640
2019-05-28T13:42:12.469Z,580
2019-05-28T13:43:22.575Z,555
2019-05-28T13:44:32.573Z,545
2019-05-28T13:45:42.556Z,540
2019-05-28T13:46:52.663Z,540
2019-05-28T13:48:02.151Z,545
2019-05-28T13:49:12.275Z,550
2019-05-28T13:50:22.260Z,630
2019-05-28T13:51:32.240Z,620
2019-05-28T13:52:42.227Z,615
2019-05-28T13:53:52.222Z,625
2019-05-28T13:55:02.233Z,620
2019-05-28T13:56:11.971Z,600
2019-05-28T13:57:21.942Z,605
2019-05-28T13:58:32.053Z,615
2019-05-28T13:59:41.785Z,620
2019-05-28T14:00:51.690Z,635
2019-05-28T14:02:01.821Z,650
2019-05-28T14:03:13.427Z,650
2019-05-28T14:04:23.399Z,660
2019-05-28T14:05:33.380Z,670
2019-05-28T14:06:49.053Z,655
2019-05-28T14:07:58.854Z,675
2019-05-28T14:09:08.586Z,725
2019-05-28T14:10:18.905Z,750
2019-05-28T14:11:28.617Z,915
2019-05-28T14:12:38.384Z,1055
2019-05-28T14:13:48.398Z,1065
2019-05-28T14:14:58.379Z,1125
2019-05-28T14:16:11.264Z,1160
2019-05-28T14:17:21.024Z,1190
2019-05-28T14:18:30.758Z,1285
2019-05-28T14:19:40.517Z,1305
2019-05-28T14:20:50.512Z,1335
2019-05-28T14:22:04.104Z,1430
2019-05-28T14:23:14.414Z,1525
2019-05-28T14:24:24.408Z,1740
2019-05-28T14:25:34.403Z,1675
2019-05-28T14:26:44.377Z,1520
2019-05-28T14:27:54.386Z,1235
2019-05-28T14:29:04.367Z,850
2019-05-28T14:30:14.351Z,745
2019-05-28T14:31:24.320Z,715
2019-05-28T14:32:34.381Z,650
2019-05-28T14:33:44.379Z,605
2019-05-28T14:34:57.266Z,570
2019-05-28T14:36:07.050Z,540
2019-05-28T14:37:17.020Z,525
2019-05-28T14:38:26.781Z,550
2019-05-28T14:39:50.303Z,620
2019-05-28T14:41:02.746Z,1285
2019-05-28T14:42:12.760Z,650
2019-05-28T14:43:22.530Z,615
2019-05-28T14:44:32.502Z,580
2019-05-28T14:45:42.525Z,560
2019-05-28T14:46:52.276Z,580
2019-05-28T14:48:02.401Z,1240
2019-05-28T14:49:17.013Z,1150
2019-05-28T14:50:26.717Z,1160
2019-05-28T14:51:36.199Z,730
2019-05-28T14:52:45.954Z,675
2019-05-28T14:53:55.971Z,530
2019-05-28T14:55:05.709Z,470
2019-05-28T14:56:15.534Z,440
2019-05-28T14:57:25.575Z,435
2019-05-28T14:58:35.585Z,415
2019-05-28T14:59:45.315Z,395
2019-05-28T15:00:54.835Z,375
2019-05-28T15:02:04.589Z,355
2019-05-28T15:03:14.098Z,335
2019-05-28T15:04:24.856Z,330
2019-05-28T15:05:34.855Z,510
2019-05-28T15:06:44.813Z,335
2019-05-28T15:07:54.594Z,335
2019-05-28T15:09:21.858Z,330
2019-05-28T15:10:31.643Z,335
2019-05-28T15:11:41.630Z,350
2019-05-28T15:12:51.697Z,375
2019-05-28T15:14:01.702Z,420
2019-05-28T15:15:12.509Z,475
2019-05-28T15:16:22.537Z,745
2019-05-28T15:17:35.984Z,420
2019-05-28T15:18:45.969Z,365
2019-05-28T15:19:55.943Z,335
2019-05-28T15:21:05.980Z,320
2019-05-28T15:22:16.051Z,305
2019-05-28T15:23:25.793Z,305
2019-05-28T15:24:35.552Z,305
2019-05-28T15:25:45.529Z,320
2019-05-28T15:26:55.252Z,430
2019-05-28T15:28:05.221Z,440
2019-05-28T15:29:14.698Z,360
2019-05-28T15:30:24.163Z,340
2019-05-28T15:31:34.247Z,315
2019-05-28T15:32:44.229Z,285
2019-05-28T15:33:54.215Z,265
2019-05-28T15:35:04.308Z,250
2019-05-28T15:36:14.277Z,235
2019-05-28T15:37:24.131Z,220
2019-05-28T15:38:34.102Z,205
2019-05-28T15:39:49.557Z,190
2019-05-28T15:40:59.541Z,175
2019-05-28T15:42:19.181Z,170
2019-05-28T15:43:29.843Z,165
2019-05-28T15:44:39.826Z,170
2019-05-28T15:45:49.807Z,175
2019-05-28T15:46:59.281Z,185
2019-05-28T15:48:09.274Z,195
2019-05-28T15:49:19.011Z,220
2019-05-28T15:50:29.147Z,250
2019-05-28T15:51:39.368Z,280
2019-05-28T15:52:49.072Z,245
2019-05-28T15:53:58.531Z,250
2019-05-28T15:55:08.527Z,255
2019-05-28T15:56:18.514Z,250
2019-05-28T15:57:28.224Z,245
2019-05-28T15:58:38.194Z,265
2019-05-28T15:59:48.182Z,220
2019-05-28T16:00:57.808Z,210
2019-05-28T16:02:07.784Z,190
2019-05-28T16:03:17.553Z,170
2019-05-28T16:04:27.562Z,155
2019-05-28T16:05:37.537Z,140
2019-05-28T16:06:47.495Z,125
2019-05-28T16:07:57.495Z,115
2019-05-28T16:09:07.458Z,105
2019-05-28T16:10:17.451Z,95
2019-05-28T16:11:27.166Z,95
2019-05-28T16:12:37.147Z,85
2019-05-28T16:13:47.203Z,75
2019-05-28T16:14:57.275Z,70
2019-05-28T16:16:10.175Z,65
2019-05-28T16:17:19.944Z,65
2019-05-28T16:18:29.660Z,60
2019-05-28T16:19:39.637Z,60
2019-05-28T16:20:49.647Z,60
2019-05-28T16:21:59.386Z,60
2019-05-28T16:23:09.191Z,65
2019-05-28T16:24:19.148Z,65
2019-05-28T16:25:28.707Z,70
2019-05-28T16:26:38.691Z,75
2019-05-28T16:27:48.420Z,80